Time;durP1;ratioP1;P1;durP2;ratioP2;P2;SDS_P1;SDS_P2;PMS_P1;PMS_P2;Temp;Humidity;BMP_temperature;BMP_pressure;BME280_temperature;BME280_humidity;BME280_pressure;Samples;Min_cycle;Max_cycle;Signal;HPM_P1;HPM_P2
2023/01/28 00:01:07;;;;;;;44.40;23.23;;;;;;;;;;4896066;29;20096;-62
2023/01/28 00:03:34;;;;;;;45.80;23.17;;;;;;;;;;4895911;29;20111;-65
2023/01/28 00:06:07;;;;;;;43.20;23.85;;;;;;;;;;4895991;29;20473;-62
2023/01/28 00:08:33;;;;;;;41.00;22.00;;;;;;;;;;4895330;29;20500;-63
2023/01/28 00:11:00;;;;;;;43.83;22.63;;;;;;;;;;4896186;29;20031;-63
2023/01/28 00:13:26;;;;;;;43.67;23.90;;;;;;;;;;4895931;29;20042;-62
2023/01/28 00:15:59;;;;;;;41.65;22.17;;;;;;;;;;4896132;29;20033;-63
2023/01/28 00:18:25;;;;;;;42.67;22.33;;;;;;;;;;4896002;29;20024;-63
2023/01/28 00:20:57;;;;;;;44.10;23.42;;;;;;;;;;4878579;29;20104;-63
2023/01/28 00:23:23;;;;;;;;;;;;;;;;;;4895977;29;20422;-64
2023/01/28 00:25:49;;;;;;;41.55;22.30;;;;;;;;;;4878990;29;19908;-65
2023/01/28 00:28:15;;;;;;;42.72;21.98;;;;;;;;;;4895985;29;20101;-66
2023/01/28 00:30:41;;;;;;;40.03;21.02;;;;;;;;;;4895421;29;20037;-65
2023/01/28 00:33:07;;;;;;;40.28;22.67;;;;;;;;;;4895511;29;20041;-64
2023/01/28 00:35:33;;;;;;;45.15;22.65;;;;;;;;;;4895930;29;20045;-64
2023/01/28 00:37:59;;;;;;;41.00;22.95;;;;;;;;;;4895916;29;20032;-64
2023/01/28 00:40:25;;;;;;;39.80;22.23;;;;;;;;;;4896002;29;20092;-65
2023/01/28 00:42:53;;;;;;;39.47;21.92;;;;;;;;;;4895862;29;20028;-69
2023/01/28 00:45:19;;;;;;;40.42;21.83;;;;;;;;;;4894055;29;20374;-65
2023/01/28 00:47:47;;;;;;;40.13;21.48;;;;;;;;;;4895706;29;20255;-64
2023/01/28 00:50:13;;;;;;;37.28;20.48;;;;;;;;;;4895129;29;20033;-64
2023/01/28 00:52:39;;;;;;;38.00;20.80;;;;;;;;;;4895557;29;20061;-64
2023/01/28 00:55:06;;;;;;;38.63;20.95;;;;;;;;;;4895434;29;20052;-64
2023/01/28 00:57:32;;;;;;;38.90;21.90;;;;;;;;;;4895729;29;20025;-62
2023/01/28 00:59:58;;;;;;;40.22;21.85;;;;;;;;;;4894505;29;20032;-64
2023/01/28 01:02:25;;;;;;;34.90;20.77;;;;;;;;;;4895424;29;20032;-63
2023/01/28 01:04:58;;;;;;;36.78;20.33;;;;;;;;;;4895499;29;20389;-62
2023/01/28 01:07:42;;;;;;;37.75;21.15;;;;;;;;;;4895910;29;20040;-62
2023/01/28 01:10:13;;;;;;;39.85;20.85;;;;;;;;;;4895435;29;20153;-65
2023/01/28 01:12:39;;;;;;;35.75;20.70;;;;;;;;;;4895423;29;20028;-62
2023/01/28 01:15:07;;;;;;;39.85;21.23;;;;;;;;;;4895360;29;20044;-62
2023/01/28 01:17:36;;;;;;;35.60;20.48;;;;;;;;;;4895732;29;20128;-63
2023/01/28 01:20:02;;;;;;;38.30;20.73;;;;;;;;;;4896901;29;20113;-63
2023/01/28 01:22:30;;;;;;;38.03;21.17;;;;;;;;;;4898848;29;20036;-62
2023/01/28 01:24:56;;;;;;;40.67;21.13;;;;;;;;;;4899204;29;20072;-63
2023/01/28 01:27:22;;;;;;;37.72;20.38;;;;;;;;;;4899076;29;20129;-62
2023/01/28 01:29:48;;;;;;;30.63;17.80;;;;;;;;;;4898973;29;20056;-62
2023/01/28 01:32:14;;;;;;;36.10;19.45;;;;;;;;;;4898442;29;20113;-62
2023/01/28 01:34:40;;;;;;;35.85;19.85;;;;;;;;;;4898176;29;20052;-65
2023/01/28 01:37:07;;;;;;;36.78;21.00;;;;;;;;;;4898500;29;20384;-62
2023/01/28 01:39:33;;;;;;;35.40;19.83;;;;;;;;;;4898518;29;20163;-65
2023/01/28 01:42:00;;;;;;;37.55;20.30;;;;;;;;;;4898673;29;20067;-62
2023/01/28 01:44:45;;;;;;;37.88;20.48;;;;;;;;;;4898629;29;20115;-62
2023/01/28 01:47:11;;;;;;;39.08;21.13;;;;;;;;;;4898468;29;20485;-62
2023/01/28 01:49:37;;;;;;;35.60;19.77;;;;;;;;;;4898256;29;20040;-68
2023/01/28 01:52:07;;;;;;;37.17;20.40;;;;;;;;;;4898555;29;20021;-62
2023/01/28 01:54:33;;;;;;;38.75;20.55;;;;;;;;;;4897977;29;20044;-63
2023/01/28 01:57:00;;;;;;;37.92;21.10;;;;;;;;;;4898270;29;20047;-63
2023/01/28 01:59:28;;;;;;;39.63;21.63;;;;;;;;;;4898282;29;20071;-65
2023/01/28 02:01:54;;;;;;;42.90;21.73;;;;;;;;;;4898200;29;20473;-67
2023/01/28 02:04:28;;;;;;;36.33;20.15;;;;;;;;;;4898011;29;20111;-62
2023/01/28 02:06:55;;;;;;;41.88;21.50;;;;;;;;;;4898230;29;20060;-62
2023/01/28 02:09:22;;;;;;;41.40;22.83;;;;;;;;;;4898277;29;20067;-62
2023/01/28 02:11:49;;;;;;;41.08;21.50;;;;;;;;;;4898052;29;20040;-65
2023/01/28 02:14:15;;;;;;;41.00;21.75;;;;;;;;;;4897709;29;20556;-63
2023/01/28 02:16:41;;;;;;;41.00;22.88;;;;;;;;;;4898053;29;20389;-63
2023/01/28 02:19:07;;;;;;;40.75;22.02;;;;;;;;;;4897975;29;20035;-62
2023/01/28 02:21:36;;;;;;;39.75;21.77;;;;;;;;;;4898100;29;20074;-66
2023/01/28 02:24:25;;;;;;;41.58;22.38;;;;;;;;;;4897817;29;20043;-65
2023/01/28 02:26:59;;;;;;;42.17;22.52;;;;;;;;;;4897926;29;20088;-69
2023/01/28 02:29:25;;;;;;;44.22;22.30;;;;;;;;;;4897640;29;20172;-65
2023/01/28 02:31:57;;;;;;;40.03;22.17;;;;;;;;;;4896420;29;20051;-64
2023/01/28 02:34:23;;;;;;;;;;;;;;;;;;4898281;29;20061;-64
2023/01/28 02:37:09;;;;;;;41.10;21.23;;;;;;;;;;4897740;29;19912;-69
2023/01/28 02:39:38;;;;;;;42.65;21.75;;;;;;;;;;4897786;29;20037;-70
2023/01/28 02:42:06;;;;;;;45.42;22.50;;;;;;;;;;4897298;29;20142;-64
2023/01/28 02:44:32;;;;;;;44.85;22.65;;;;;;;;;;4897688;29;20904;-68
2023/01/28 02:49:50;;;;;;;43.85;22.52;;;;;;;;;;4897460;29;20128;-64
2023/01/28 02:55:27;;;;;;;44.40;22.20;;;;;;;;;;4897135;29;20562;-64
2023/01/28 02:57:56;;;;;;;42.88;23.70;;;;;;;;;;4896940;29;20311;-63
2023/01/28 03:00:25;;;;;;;42.90;22.42;;;;;;;;;;4897038;29;20032;-63
2023/01/28 03:03:06;;;;;;;42.20;21.80;;;;;;;;;;4898796;29;20043;-66
2023/01/28 03:05:36;;;;;;;43.78;22.85;;;;;;;;;;4897465;29;20393;-64
2023/01/28 03:09:21;;;;;;;41.00;21.50;;;;;;;;;;4896721;29;20036;-68
2023/01/28 03:38:47;;;;;;;43.97;21.58;;;;;;;;;;4896791;29;20408;-68
2023/01/28 03:41:19;;;;;;;43.45;22.48;;;;;;;;;;4896592;29;20024;-63
2023/01/28 03:43:45;;;;;;;41.58;20.20;;;;;;;;;;4896212;29;20108;-63
2023/01/28 03:46:11;;;;;;;41.58;22.23;;;;;;;;;;4896412;29;20028;-62
2023/01/28 03:48:37;;;;;;;43.05;21.00;;;;;;;;;;4896680;29;20400;-68
2023/01/28 03:51:03;;;;;;;46.45;21.30;;;;;;;;;;4896421;29;20029;-62
2023/01/28 03:53:29;;;;;;;44.55;22.00;;;;;;;;;;4896063;29;20043;-62
2023/01/28 03:55:55;;;;;;;42.45;21.85;;;;;;;;;;4896251;29;20079;-63
2023/01/28 04:01:12;;;;;;;40.40;20.10;;;;;;;;;;4819979;29;20455;-65
2023/01/28 04:03:38;;;;;;;39.60;20.67;;;;;;;;;;4820254;29;20484;-63
2023/01/28 04:06:05;;;;;;;39.33;19.58;;;;;;;;;;4820553;29;20093;-62
2023/01/28 04:08:32;;;;;;;37.90;19.17;;;;;;;;;;4819716;29;20083;-63
2023/01/28 04:11:00;;;;;;;41.03;20.98;;;;;;;;;;4820266;29;20034;-68
2023/01/28 04:13:40;;;;;;;37.25;20.02;;;;;;;;;;4820082;29;20069;-63
2023/01/28 04:16:07;;;;;;;39.97;20.10;;;;;;;;;;4820218;29;20073;-64
2023/01/28 04:18:33;;;;;;;40.65;20.55;;;;;;;;;;4820099;29;20061;-69
2023/01/28 04:20:59;;;;;;;40.70;20.27;;;;;;;;;;4819924;29;20066;-66
2023/01/28 04:23:25;;;;;;;37.30;19.98;;;;;;;;;;4819630;29;20035;-61
2023/01/28 04:25:51;;;;;;;38.63;20.75;;;;;;;;;;4820206;29;20057;-70
2023/01/28 04:28:17;;;;;;;41.40;20.50;;;;;;;;;;4820028;29;20030;-64
2023/01/28 04:30:43;;;;;;;39.00;19.52;;;;;;;;;;4820012;29;20097;-70
2023/01/28 04:33:10;;;;;;;40.20;20.58;;;;;;;;;;4819740;29;20058;-64
2023/01/28 04:35:36;;;;;;;38.63;20.65;;;;;;;;;;4819287;29;20533;-64
2023/01/28 04:38:02;;;;;;;43.75;20.48;;;;;;;;;;4852686;29;20064;-64
2023/01/28 04:40:28;;;;;;;40.42;20.92;;;;;;;;;;4895812;29;20037;-64
2023/01/28 04:42:55;;;;;;;38.63;20.63;;;;;;;;;;4895668;29;20135;-64
2023/01/28 04:45:21;;;;;;;38.95;19.80;;;;;;;;;;4895779;29;20043;-64
2023/01/28 04:47:47;;;;;;;42.08;21.80;;;;;;;;;;4895712;29;20488;-64
2023/01/28 04:50:13;;;;;;;38.53;19.55;;;;;;;;;;4895530;29;20504;-64
2023/01/28 04:52:39;;;;;;;40.40;20.42;;;;;;;;;;4895689;29;20029;-64
2023/01/28 04:55:06;;;;;;;42.08;20.73;;;;;;;;;;4897098;29;20048;-69
2023/01/28 04:57:32;;;;;;;41.78;22.10;;;;;;;;;;4899554;29;20393;-64
2023/01/28 04:59:58;;;;;;;39.67;20.80;;;;;;;;;;4899844;29;20374;-64
2023/01/28 05:02:24;;;;;;;37.22;20.02;;;;;;;;;;4898928;29;20036;-64
2023/01/28 05:04:50;;;;;;;37.08;19.75;;;;;;;;;;4899481;29;20040;-64
2023/01/28 05:07:16;;;;;;;39.20;20.83;;;;;;;;;;4899429;29;20104;-64
2023/01/28 05:09:42;;;;;;;37.55;19.80;;;;;;;;;;4899396;29;20082;-63
2023/01/28 05:12:08;;;;;;;39.72;20.50;;;;;;;;;;4899149;29;20144;-63
2023/01/28 05:14:34;;;;;;;40.88;20.25;;;;;;;;;;4899065;29;20503;-65
2023/01/28 05:17:00;;;;;;;40.85;20.70;;;;;;;;;;4899301;29;20429;-63
2023/01/28 05:19:26;;;;;;;41.28;21.15;;;;;;;;;;4899022;29;20386;-63
2023/01/28 05:21:52;;;;;;;38.75;20.80;;;;;;;;;;4899221;29;20388;-64
2023/01/28 05:24:18;;;;;;;38.58;19.70;;;;;;;;;;4898867;29;20036;-66
2023/01/28 05:26:44;;;;;;;37.00;20.63;;;;;;;;;;4899026;29;20028;-63
2023/01/28 05:29:10;;;;;;;39.35;20.25;;;;;;;;;;4898529;29;20452;-63
2023/01/28 05:31:36;;;;;;;38.40;20.80;;;;;;;;;;4898598;29;20488;-64
2023/01/28 05:34:02;;;;;;;38.63;20.70;;;;;;;;;;4898753;29;20092;-64
2023/01/28 05:36:28;;;;;;;37.35;19.30;;;;;;;;;;4898834;29;20477;-69
2023/01/28 05:38:54;;;;;;;36.45;18.70;;;;;;;;;;4898900;29;20084;-64
2023/01/28 05:41:20;;;;;;;38.10;20.17;;;;;;;;;;4898572;29;20064;-64
2023/01/28 05:43:46;;;;;;;37.20;20.00;;;;;;;;;;4898565;29;20374;-64
2023/01/28 05:46:12;;;;;;;36.90;19.73;;;;;;;;;;4898840;29;20036;-64
2023/01/28 05:48:38;;;;;;;33.47;19.08;;;;;;;;;;4898875;29;20111;-64
2023/01/28 05:51:04;;;;;;;36.45;19.45;;;;;;;;;;4898692;29;20483;-64
2023/01/28 05:53:31;;;;;;;32.88;18.92;;;;;;;;;;4898213;29;20104;-64
2023/01/28 05:55:57;;;;;;;36.92;18.85;;;;;;;;;;4898424;29;20040;-64
2023/01/28 05:58:23;;;;;;;33.30;18.58;;;;;;;;;;4898488;29;20056;-67
2023/01/28 06:00:49;;;;;;;34.80;19.00;;;;;;;;;;4898568;29;20036;-65
2023/01/28 06:03:15;;;;;;;35.97;19.48;;;;;;;;;;4898203;29;20033;-64
2023/01/28 06:05:41;;;;;;;36.42;19.95;;;;;;;;;;4897099;29;20039;-67
2023/01/28 06:08:07;;;;;;;37.17;20.27;;;;;;;;;;4897165;29;20032;-64
2023/01/28 06:10:33;;;;;;;39.30;21.75;;;;;;;;;;4898127;29;20473;-63
2023/01/28 06:13:00;;;;;;;40.22;21.35;;;;;;;;;;4898246;29;20076;-64
2023/01/28 06:15:26;;;;;;;38.92;20.80;;;;;;;;;;4897835;29;20041;-66
2023/01/28 06:17:52;;;;;;;40.85;21.10;;;;;;;;;;4897877;29;20032;-64
2023/01/28 06:20:18;;;;;;;42.92;22.05;;;;;;;;;;4897944;29;20371;-63
2023/01/28 06:22:44;;;;;;;45.25;23.23;;;;;;;;;;4898089;29;20032;-64
2023/01/28 06:25:10;;;;;;;44.30;22.00;;;;;;;;;;4897804;29;20516;-65
2023/01/28 06:27:37;;;;;;;42.65;22.40;;;;;;;;;;4897747;29;20137;-63
2023/01/28 06:30:03;;;;;;;44.88;22.17;;;;;;;;;;4897585;29;20035;-63
2023/01/28 06:32:30;;;;;;;46.35;22.77;;;;;;;;;;4897534;29;20041;-64
2023/01/28 06:34:56;;;;;;;42.08;21.45;;;;;;;;;;4897611;29;20053;-65
2023/01/28 06:37:22;;;;;;;41.00;21.95;;;;;;;;;;4897816;29;20051;-64
2023/01/28 06:39:48;;;;;;;43.72;23.27;;;;;;;;;;4897493;29;20400;-64
2023/01/28 06:42:14;;;;;;;45.30;23.52;;;;;;;;;;4897741;29;20108;-66
2023/01/28 06:44:40;;;;;;;47.15;23.85;;;;;;;;;;4897609;29;20021;-64
2023/01/28 06:47:06;;;;;;;52.97;25.63;;;;;;;;;;4897736;29;20056;-64
2023/01/28 06:49:32;;;;;;;49.88;24.38;;;;;;;;;;4897398;29;20064;-64
2023/01/28 06:51:58;;;;;;;49.13;25.30;;;;;;;;;;4897595;29;20057;-63
2023/01/28 06:54:24;;;;;;;47.40;23.65;;;;;;;;;;4897376;29;20097;-65
2023/01/28 06:56:50;;;;;;;47.42;23.90;;;;;;;;;;4897611;29;20028;-67
2023/01/28 06:59:16;;;;;;;48.38;25.02;;;;;;;;;;4897255;29;20071;-66
2023/01/28 07:01:42;;;;;;;50.03;24.75;;;;;;;;;;4893575;29;20028;-65
2023/01/28 07:04:08;;;;;;;47.35;24.27;;;;;;;;;;4896844;29;20039;-64
2023/01/28 07:06:34;;;;;;;50.35;24.42;;;;;;;;;;4896611;29;20032;-65
2023/01/28 07:09:00;;;;;;;51.35;24.55;;;;;;;;;;4896969;29;20056;-64
2023/01/28 07:11:26;;;;;;;46.50;23.40;;;;;;;;;;4896707;29;20583;-65
2023/01/28 07:13:52;;;;;;;49.65;23.92;;;;;;;;;;4896425;29;20032;-64
2023/01/28 07:16:18;;;;;;;54.17;25.15;;;;;;;;;;4895834;29;20047;-65
2023/01/28 07:18:44;;;;;;;52.67;24.75;;;;;;;;;;4893424;29;20097;-64
2023/01/28 07:21:11;;;;;;;50.85;24.83;;;;;;;;;;4896273;29;20032;-65
2023/01/28 07:23:38;;;;;;;53.63;25.20;;;;;;;;;;4896662;29;20024;-64
2023/01/28 07:26:05;;;;;;;54.20;26.65;;;;;;;;;;4896249;29;20503;-69
2023/01/28 07:28:31;;;;;;;49.13;25.45;;;;;;;;;;4896424;29;20036;-68
2023/01/28 07:30:57;;;;;;;48.40;24.83;;;;;;;;;;4895922;29;20037;-67
2023/01/28 07:33:23;;;;;;;47.10;24.70;;;;;;;;;;4895845;29;20052;-64
2023/01/28 07:35:49;;;;;;;50.33;25.10;;;;;;;;;;4896037;29;20392;-64
2023/01/28 07:38:15;;;;;;;51.03;25.55;;;;;;;;;;4896271;29;20032;-70
2023/01/28 07:40:41;;;;;;;52.42;24.45;;;;;;;;;;4896488;29;20039;-64
2023/01/28 07:43:08;;;;;;;54.65;25.77;;;;;;;;;;4895850;29;20025;-64
2023/01/28 07:45:34;;;;;;;52.45;25.67;;;;;;;;;;4896203;29;20150;-65
2023/01/28 07:48:02;;;;;;;51.97;26.38;;;;;;;;;;4895603;29;20024;-64
2023/01/28 07:50:29;;;;;;;51.25;25.88;;;;;;;;;;4895977;29;20481;-64
2023/01/28 07:52:55;;;;;;;51.90;25.17;;;;;;;;;;4896510;29;20024;-64
2023/01/28 07:55:21;;;;;;;48.30;25.55;;;;;;;;;;4895649;29;20404;-68
2023/01/28 07:57:52;;;;;;;54.47;26.52;;;;;;;;;;4895936;29;20055;-64
2023/01/28 08:00:19;;;;;;;55.65;26.60;;;;;;;;;;4895919;29;20028;-64
2023/01/28 08:02:46;;;;;;;51.38;25.60;;;;;;;;;;4895792;29;20135;-65
2023/01/28 08:05:22;;;;;;;57.05;26.85;;;;;;;;;;4895870;29;20073;-64
2023/01/28 08:07:48;;;;;;;55.55;26.98;;;;;;;;;;4895533;29;20029;-63
2023/01/28 08:10:18;;;;;;;53.22;27.10;;;;;;;;;;4900395;29;20080;-64
2023/01/28 08:12:54;;;;;;;58.30;26.25;;;;;;;;;;4901914;29;20111;-64
2023/01/28 08:15:20;;;;;;;55.80;27.15;;;;;;;;;;4900634;29;20486;-64
2023/01/28 08:17:46;;;;;;;60.35;29.20;;;;;;;;;;4902858;29;20076;-64
2023/01/28 08:20:13;;;;;;;57.38;28.35;;;;;;;;;;4902720;29;20032;-64
2023/01/28 08:22:39;;;;;;;60.25;28.00;;;;;;;;;;4902336;29;20441;-64
2023/01/28 08:25:05;;;;;;;52.13;25.23;;;;;;;;;;4902486;29;20028;-66
2023/01/28 08:27:31;;;;;;;52.53;26.40;;;;;;;;;;4902397;29;20025;-64
2023/01/28 08:29:57;;;;;;;57.10;27.40;;;;;;;;;;4901529;29;20091;-64
2023/01/28 08:32:23;;;;;;;53.40;26.15;;;;;;;;;;4902420;29;20024;-63
2023/01/28 08:34:49;;;;;;;53.05;26.83;;;;;;;;;;4901775;29;20142;-63
2023/01/28 08:37:15;;;;;;;46.67;25.27;;;;;;;;;;4902237;29;20155;-64
2023/01/28 08:39:42;;;;;;;53.50;27.60;;;;;;;;;;4902101;29;20024;-67
2023/01/28 08:42:08;;;;;;;57.90;28.83;;;;;;;;;;4900955;29;20032;-63
2023/01/28 08:44:34;;;;;;;52.70;27.38;;;;;;;;;;4902152;29;20107;-68
2023/01/28 08:47:00;;;;;;;52.25;26.40;;;;;;;;;;4898078;29;20172;-63
2023/01/28 08:49:26;;;;;;;53.25;27.45;;;;;;;;;;4895470;29;20237;-65
2023/01/28 08:51:54;;;;;;;55.08;27.52;;;;;;;;;;4895894;29;20028;-65
2023/01/28 08:54:20;;;;;;;57.80;28.65;;;;;;;;;;4894862;29;20021;-63
2023/01/28 08:56:47;;;;;;;52.75;28.27;;;;;;;;;;4895574;29;20040;-62
2023/01/28 08:59:13;;;;;;;58.20;28.30;;;;;;;;;;4895750;29;20039;-63
2023/01/28 09:01:39;;;;;;;53.70;28.17;;;;;;;;;;4895488;29;20048;-63
2023/01/28 09:04:05;;;;;;;48.90;26.45;;;;;;;;;;4895673;29;20036;-66
2023/01/28 09:06:32;;;;;;;53.03;28.10;;;;;;;;;;4895411;29;20043;-62
2023/01/28 09:08:58;;;;;;;52.78;27.33;;;;;;;;;;4895050;29;20473;-68
2023/01/28 09:11:24;;;;;;;52.50;28.23;;;;;;;;;;4895662;29;20048;-63
2023/01/28 09:13:50;;;;;;;58.13;28.77;;;;;;;;;;4895510;29;20028;-63
2023/01/28 09:16:16;;;;;;;53.28;27.15;;;;;;;;;;4895464;29;20096;-63
2023/01/28 09:18:43;;;;;;;53.08;28.15;;;;;;;;;;4895224;29;20541;-63
2023/01/28 09:21:09;;;;;;;56.97;29.55;;;;;;;;;;4894775;29;20103;-62
2023/01/28 09:23:35;;;;;;;54.78;28.98;;;;;;;;;;4894847;29;20172;-62
2023/01/28 09:26:02;;;;;;;52.83;27.88;;;;;;;;;;4895605;29;20036;-63
2023/01/28 09:28:29;;;;;;;54.33;28.83;;;;;;;;;;4895347;29;20393;-63
2023/01/28 09:31:00;;;;;;;56.25;29.42;;;;;;;;;;4895514;29;20031;-63
2023/01/28 09:33:26;;;;;;;41.30;21.38;;;;;;;;;;4896980;29;20486;-63
2023/01/28 09:35:52;;;;;;;55.05;28.25;;;;;;;;;;4900134;29;20040;-63
2023/01/28 09:38:18;;;;;;;53.92;27.60;;;;;;;;;;4903913;29;20016;-64
2023/01/28 09:40:44;;;;;;;54.70;28.17;;;;;;;;;;4902630;29;20514;-62
2023/01/28 09:43:26;;;;;;;52.85;27.65;;;;;;;;;;4911032;29;20020;-62
2023/01/28 09:45:55;;;;;;;56.60;30.30;;;;;;;;;;4905314;29;20558;-65
2023/01/28 09:48:22;;;;;;;51.55;26.88;;;;;;;;;;4900889;29;20039;-63
2023/01/28 09:50:50;;;;;;;53.35;28.48;;;;;;;;;;4899068;29;20499;-66
2023/01/28 09:53:30;;;;;;;52.88;28.00;;;;;;;;;;4899066;29;20035;-64
2023/01/28 09:56:02;;;;;;;55.05;28.63;;;;;;;;;;4898307;29;20047;-67
2023/01/28 09:58:28;;;;;;;55.60;28.02;;;;;;;;;;4898375;29;20036;-69
2023/01/28 10:01:28;;;;;;;55.72;28.48;;;;;;;;;;4898504;29;20032;-62
2023/01/28 10:04:09;;;;;;;52.50;29.40;;;;;;;;;;4897794;29;20565;-63
2023/01/28 10:06:54;;;;;;;41.58;21.83;;;;;;;;;;4898350;29;20032;-63
2023/01/28 10:09:31;;;;;;;50.13;27.55;;;;;;;;;;4898051;29;20358;-63
2023/01/28 10:12:03;;;;;;;55.50;29.00;;;;;;;;;;4898639;29;20039;-62
2023/01/28 10:14:39;;;;;;;56.75;29.75;;;;;;;;;;4898934;29;20048;-66
2023/01/28 10:17:08;;;;;;;57.97;31.20;;;;;;;;;;4902468;29;20067;-64
2023/01/28 10:19:40;;;;;;;58.00;28.65;;;;;;;;;;4900953;29;20052;-63
2023/01/28 10:22:17;;;;;;;53.40;28.42;;;;;;;;;;4902389;29;20032;-63
2023/01/28 10:24:57;;;;;;;56.55;29.08;;;;;;;;;;4903739;29;20485;-65
2023/01/28 10:27:24;;;;;;;53.72;28.13;;;;;;;;;;4878924;29;20037;-63
2023/01/28 10:29:51;;;;;;;59.13;30.55;;;;;;;;;;4879312;29;20089;-62
2023/01/28 10:32:29;;;;;;;54.67;28.77;;;;;;;;;;4879325;29;20033;-64
2023/01/28 10:34:58;;;;;;;56.80;29.70;;;;;;;;;;4878054;29;20577;-64
2023/01/28 10:37:25;;;;;;;61.13;30.25;;;;;;;;;;4878734;29;20435;-65
2023/01/28 10:39:53;;;;;;;55.92;28.80;;;;;;;;;;4885290;29;20032;-65
2023/01/28 10:42:22;;;;;;;60.75;29.48;;;;;;;;;;4897266;29;20067;-65
2023/01/28 10:44:49;;;;;;;60.50;29.75;;;;;;;;;;4897301;29;20037;-71
2023/01/28 10:47:16;;;;;;;59.85;31.08;;;;;;;;;;4897492;29;20080;-64
2023/01/28 10:49:45;;;;;;;59.25;30.10;;;;;;;;;;4902381;29;20024;-64
2023/01/28 10:52:15;;;;;;;59.70;29.88;;;;;;;;;;4915071;29;20540;-72
2023/01/28 10:54:41;;;;;;;69.18;31.33;;;;;;;;;;4916288;29;20044;-64
2023/01/28 10:57:11;;;;;;;63.47;32.25;;;;;;;;;;4916212;29;20028;-71
2023/01/28 10:59:41;;;;;;;65.55;32.70;;;;;;;;;;4916190;29;20090;-63
2023/01/28 11:02:25;;;;;;;69.13;32.38;;;;;;;;;;4915454;29;20051;-70
2023/01/28 11:05:01;;;;;;;65.78;30.92;;;;;;;;;;4916011;29;20477;-68
2023/01/28 11:07:27;;;;;;;66.75;31.55;;;;;;;;;;4898830;29;20028;-65
2023/01/28 11:09:53;;;;;;;68.30;31.20;;;;;;;;;;4916056;29;20035;-70
2023/01/28 11:12:21;;;;;;;68.53;31.40;;;;;;;;;;4914760;29;20059;-63
2023/01/28 11:14:51;;;;;;;69.95;32.17;;;;;;;;;;4915714;29;20534;-70
2023/01/28 11:17:18;;;;;;;69.53;32.08;;;;;;;;;;4897119;29;20130;-63
2023/01/28 11:19:45;;;;;;;70.43;33.83;;;;;;;;;;4896720;29;20036;-67
2023/01/28 11:22:21;;;;;;;74.25;34.45;;;;;;;;;;4896536;29;20119;-66
2023/01/28 11:24:47;;;;;;;69.55;32.15;;;;;;;;;;4896720;29;20027;-70
2023/01/28 11:27:18;;;;;;;72.38;33.38;;;;;;;;;;4896583;29;20029;-61
2023/01/28 11:29:44;;;;;;;71.55;32.17;;;;;;;;;;4896783;29;20029;-63
2023/01/28 11:32:21;;;;;;;73.78;32.88;;;;;;;;;;4896674;29;20425;-66
2023/01/28 11:34:56;;;;;;;75.78;33.85;;;;;;;;;;4895922;29;20056;-63
2023/01/28 11:37:23;;;;;;;75.63;35.17;;;;;;;;;;4896677;29;20020;-62
2023/01/28 11:40:00;;;;;;;74.50;33.75;;;;;;;;;;4896484;29;20398;-66
2023/01/28 11:42:26;;;;;;;77.88;33.38;;;;;;;;;;4896403;29;20037;-65
2023/01/28 11:44:53;;;;;;;78.10;34.40;;;;;;;;;;4896564;29;20032;-63
2023/01/28 11:47:37;;;;;;;74.60;34.03;;;;;;;;;;4896003;29;20039;-69
2023/01/28 11:50:12;;;;;;;74.43;33.95;;;;;;;;;;4896168;29;20421;-67
2023/01/28 11:52:54;;;;;;;78.50;35.08;;;;;;;;;;4896354;29;20041;-68
2023/01/28 11:55:33;;;;;;;72.18;35.20;;;;;;;;;;4895577;29;20044;-65
2023/01/28 11:58:16;;;;;;;81.65;35.55;;;;;;;;;;4901590;29;20508;-64
2023/01/28 12:00:51;;;;;;;77.88;32.85;;;;;;;;;;4903983;29;20032;-66
2023/01/28 12:03:35;;;;;;;79.80;36.30;;;;;;;;;;4902130;29;20468;-62
2023/01/28 12:06:10;;;;;;;76.47;33.35;;;;;;;;;;4903403;29;20747;-63
2023/01/28 12:08:36;;;;;;;75.65;33.33;;;;;;;;;;4901989;29;20048;-66
2023/01/28 12:12:10;;;;;;;77.32;35.40;;;;;;;;;;4909090;29;20479;-66
2023/01/28 12:14:27;;;;;;;73.82;34.30;;;;;;;;;;4836702;29;20042;-63
2023/01/28 12:17:01;;;;;;;74.03;33.60;;;;;;;;;;4836360;29;20030;-63
2023/01/28 12:19:33;;;;;;;71.90;33.33;;;;;;;;;;4836554;29;20749;-65
2023/01/28 12:22:18;;;;;;;50.55;23.90;;;;;;;;;;4836927;29;20091;-70
2023/01/28 12:25:10;;;;;;;65.40;30.63;;;;;;;;;;4836360;29;20101;-67
2023/01/28 12:27:54;;;;;;;67.50;30.77;;;;;;;;;;4831778;29;20473;-68
2023/01/28 12:30:26;;;;;;;65.68;31.45;;;;;;;;;;4836571;29;20523;-67
2023/01/28 12:33:01;;;;;;;52.88;23.80;;;;;;;;;;4820310;29;20045;-66
2023/01/28 12:35:49;;;;;;;76.57;34.22;;;;;;;;;;4836391;29;20050;-66
2023/01/28 12:38:15;;;;;;;74.40;34.55;;;;;;;;;;4836610;29;20041;-63
2023/01/28 12:40:42;;;;;;;71.38;34.88;;;;;;;;;;4836915;29;20034;-64
2023/01/28 12:43:17;;;;;;;78.03;34.03;;;;;;;;;;4837539;29;20046;-64
2023/01/28 12:45:46;;;;;;;77.00;35.53;;;;;;;;;;4837768;29;20042;-66
2023/01/28 12:48:12;;;;;;;72.93;33.58;;;;;;;;;;4837752;29;20093;-63
2023/01/28 12:50:45;;;;;;;79.05;34.45;;;;;;;;;;4853359;29;20607;-62
2023/01/28 12:53:34;;;;;;;73.60;34.28;;;;;;;;;;4876977;29;20033;-63
2023/01/28 12:56:05;;;;;;;80.15;34.95;;;;;;;;;;4855786;29;20054;-63
2023/01/28 12:58:36;;;;;;;76.07;33.77;;;;;;;;;;4855890;29;20041;-64
2023/01/28 13:01:05;;;;;;;81.63;36.45;;;;;;;;;;4856137;29;20563;-69
2023/01/28 13:03:38;;;;;;;77.55;36.05;;;;;;;;;;4855647;29;20034;-63
2023/01/28 13:06:22;;;;;;;86.85;38.45;;;;;;;;;;4855747;29;20056;-62
2023/01/28 13:08:48;;;;;;;77.95;36.20;;;;;;;;;;4855828;29;20120;-63
2023/01/28 13:11:16;;;;;;;84.50;37.30;;;;;;;;;;4855983;29;20115;-63
2023/01/28 13:13:44;;;;;;;88.65;37.92;;;;;;;;;;4855487;29;20460;-63
2023/01/28 13:16:11;;;;;;;82.78;36.58;;;;;;;;;;4857205;29;20049;-63
2023/01/28 13:18:40;;;;;;;82.25;36.92;;;;;;;;;;4859037;29;20065;-62
2023/01/28 13:21:12;;;;;;;86.13;37.60;;;;;;;;;;4859247;29;20622;-64
2023/01/28 13:23:38;;;;;;;83.43;37.00;;;;;;;;;;4859013;29;20460;-64
2023/01/28 13:26:19;;;;;;;84.13;36.83;;;;;;;;;;4859297;29;20555;-66
2023/01/28 13:28:45;;;;;;;81.68;35.80;;;;;;;;;;4859069;29;20065;-63
2023/01/28 13:31:16;;;;;;;83.18;36.20;;;;;;;;;;4859001;29;20107;-66
2023/01/28 13:33:43;;;;;;;83.93;37.17;;;;;;;;;;4874546;29;20478;-64
2023/01/28 13:36:09;;;;;;;86.95;38.83;;;;;;;;;;4883918;29;20473;-65
2023/01/28 13:38:35;;;;;;;79.65;37.53;;;;;;;;;;4905715;29;20571;-67
2023/01/28 13:41:05;;;;;;;83.07;37.35;;;;;;;;;;4908412;29;20387;-62
2023/01/28 13:43:36;;;;;;;90.22;38.70;;;;;;;;;;4908190;29;20028;-63
2023/01/28 13:46:04;;;;;;;89.95;38.25;;;;;;;;;;4896137;29;20513;-70
2023/01/28 13:48:39;;;;;;;88.20;38.25;;;;;;;;;;4910215;29;20037;-63
2023/01/28 13:51:09;;;;;;;84.10;37.67;;;;;;;;;;4911148;29;20107;-67
2023/01/28 13:53:45;;;;;;;83.22;36.30;;;;;;;;;;4906629;29;20103;-64
2023/01/28 13:56:20;;;;;;;85.88;38.85;;;;;;;;;;4908755;29;20056;-68
2023/01/28 13:59:05;;;;;;;88.35;39.00;;;;;;;;;;4905651;29;20477;-65
2023/01/28 14:01:43;;;;;;;83.18;38.38;;;;;;;;;;4892175;29;20036;-62
2023/01/28 14:04:09;;;;;;;86.85;40.03;;;;;;;;;;4907426;29;20067;-63
2023/01/28 14:06:44;;;;;;;86.88;40.85;;;;;;;;;;4904909;29;20033;-62
2023/01/28 14:09:28;;;;;;;82.55;38.45;;;;;;;;;;4897979;29;20028;-63
2023/01/28 14:12:05;;;;;;;87.07;40.65;;;;;;;;;;4898141;29;20029;-63
2023/01/28 14:14:50;;;;;;;83.28;38.90;;;;;;;;;;4897814;29;20029;-69
2023/01/28 14:17:21;;;;;;;81.35;39.67;;;;;;;;;;4898082;29;20040;-68
2023/01/28 14:19:48;;;;;;;85.00;39.17;;;;;;;;;;4897369;29;20088;-66
2023/01/28 14:22:19;;;;;;;85.85;37.58;;;;;;;;;;4897955;29;20028;-63
2023/01/28 14:24:45;;;;;;;84.70;39.00;;;;;;;;;;4897795;29;20035;-68
2023/01/28 14:27:17;;;;;;;85.35;38.00;;;;;;;;;;4896570;29;20052;-64
2023/01/28 14:29:58;;;;;;;90.93;38.90;;;;;;;;;;4897621;29;20028;-64
2023/01/28 14:32:27;;;;;;;86.75;38.65;;;;;;;;;;4897575;29;20025;-64
2023/01/28 14:34:54;;;;;;;83.15;37.75;;;;;;;;;;4897204;29;20623;-68
2023/01/28 14:37:22;;;;;;;83.47;38.67;;;;;;;;;;4897657;29;20418;-65
2023/01/28 14:39:50;;;;;;;81.95;37.88;;;;;;;;;;4897617;29;20033;-66
2023/01/28 14:42:19;;;;;;;87.72;41.05;;;;;;;;;;4897335;29;20048;-65
2023/01/28 14:44:46;;;;;;;84.55;38.80;;;;;;;;;;4897759;29;20047;-65
2023/01/28 14:47:21;;;;;;;92.93;39.38;;;;;;;;;;4897437;29;20020;-72
2023/01/28 14:49:55;;;;;;;83.57;39.60;;;;;;;;;;4896771;29;20480;-71
2023/01/28 14:52:30;;;;;;;82.50;40.03;;;;;;;;;;4897014;29;20028;-67
2023/01/28 14:55:05;;;;;;;83.90;38.45;;;;;;;;;;4897078;29;20051;-64
2023/01/28 14:57:41;;;;;;;82.95;37.55;;;;;;;;;;4897423;29;20151;-64
2023/01/28 15:00:25;;;;;;;82.38;38.13;;;;;;;;;;4897187;29;20064;-64
2023/01/28 15:02:51;;;;;;;86.10;40.28;;;;;;;;;;4897204;29;20035;-67
2023/01/28 15:05:20;;;;;;;87.15;39.90;;;;;;;;;;4897415;29;20036;-64
2023/01/28 15:07:47;;;;;;;89.13;41.30;;;;;;;;;;4897572;29;20028;-64